Time;durP1;ratioP1;P1;durP2;ratioP2;P2;SDS_P1;SDS_P2;PMS_P1;PMS_P2;Temp;Humidity;BMP_temperature;BMP_pressure;BME280_temperature;BME280_humidity;BME280_pressure;Samples;Min_cycle;Max_cycle;Signal;HPM_P1;HPM_P2
2022/04/23 00:01:26;;;;;;;6.30;3.03;;;12.50;99.90;;;;;;5010158;28;20212;-76
2022/04/23 00:03:55;;;;;;;7.90;3.58;;;12.50;99.90;;;;;;5010874;28;20266;-73
2022/04/23 00:06:22;;;;;;;7.55;3.42;;;12.40;99.90;;;;;;5004037;28;20644;-74
2022/04/23 00:08:49;;;;;;;7.75;3.30;;;12.40;99.90;;;;;;4991639;28;20268;-73
2022/04/23 00:11:16;;;;;;;9.23;3.05;;;12.50;99.90;;;;;;4995396;28;20271;-75
2022/04/23 00:13:43;;;;;;;9.32;4.97;;;12.50;99.90;;;;;;5010825;28;20208;-74
2022/04/23 00:16:10;;;;;;;10.50;4.88;;;12.40;99.90;;;;;;5010362;28;20204;-71
2022/04/23 00:18:38;;;;;;;11.55;4.38;;;12.40;99.90;;;;;;5010816;28;20232;-74
2022/04/23 00:21:06;;;;;;;6.47;3.05;;;12.30;99.90;;;;;;5010115;28;20204;-71
2022/04/23 00:23:34;;;;;;;7.60;3.15;;;12.30;99.90;;;;;;5011008;28;20200;-74
2022/04/23 00:26:01;;;;;;;5.15;3.08;;;12.30;99.90;;;;;;5010567;28;20215;-73
2022/04/23 00:28:28;;;;;;;7.18;4.97;;;12.30;99.90;;;;;;5009660;28;20208;-72
2022/04/23 00:30:55;;;;;;;8.20;2.67;;;12.30;99.90;;;;;;5010156;28;20311;-75
2022/04/23 00:33:23;;;;;;;9.82;5.18;;;12.30;99.90;;;;;;5010305;28;20588;-75
2022/04/23 00:35:50;;;;;;;6.28;3.53;;;12.30;99.90;;;;;;5010633;28;20204;-75
2022/04/23 00:38:19;;;;;;;7.05;2.65;;;12.40;99.90;;;;;;5010125;28;20688;-74
2022/04/23 00:40:46;;;;;;;6.88;3.10;;;12.40;99.90;;;;;;5010530;28;20212;-77
2022/04/23 00:43:26;;;;;;;5.05;2.58;;;12.40;99.90;;;;;;5013730;28;20287;-74
2022/04/23 00:45:53;;;;;;;4.22;2.78;;;12.30;99.90;;;;;;5013963;28;20207;-72
2022/04/23 00:48:21;;;;;;;6.43;2.55;;;12.40;99.90;;;;;;5013663;28;20660;-77
2022/04/23 00:50:50;;;;;;;10.93;3.53;;;12.40;99.90;;;;;;5013439;28;20228;-75
2022/04/23 00:53:19;;;;;;;5.65;4.05;;;12.50;99.90;;;;;;5013722;28;20211;-80
2022/04/23 00:55:47;;;;;;;10.88;3.03;;;12.50;99.90;;;;;;5014080;28;20290;-73
2022/04/23 00:58:16;;;;;;;8.90;2.83;;;12.40;99.90;;;;;;5013704;28;20201;-81
2022/04/23 01:00:43;;;;;;;9.00;2.88;;;12.50;99.90;;;;;;5014010;28;20208;-72
2022/04/23 01:03:12;;;;;;;6.07;2.40;;;12.50;99.90;;;;;;5013444;28;20244;-72
2022/04/23 01:05:41;;;;;;;9.55;3.08;;;12.40;99.90;;;;;;5013766;28;20302;-84
2022/04/23 01:08:09;;;;;;;9.27;3.05;;;12.40;99.90;;;;;;5013296;28;20231;-72
2022/04/23 01:10:38;;;;;;;6.03;3.05;;;12.40;99.90;;;;;;5013349;28;20663;-72
2022/04/23 01:13:06;;;;;;;7.85;2.85;;;12.40;99.90;;;;;;5014001;28;20258;-81
2022/04/23 01:15:33;;;;;;;14.32;3.72;;;12.40;99.90;;;;;;5013624;28;20576;-71
2022/04/23 01:18:01;;;;;;;9.25;4.32;;;12.40;99.90;;;;;;5013292;28;20254;-75
2022/04/23 01:20:29;;;;;;;6.38;2.50;;;12.40;99.90;;;;;;5013257;28;20216;-72
2022/04/23 01:22:56;;;;;;;9.82;3.45;;;12.40;99.90;;;;;;5013409;28;20208;-75
2022/04/23 01:25:25;;;;;;;6.05;2.75;;;12.40;99.90;;;;;;5012923;28;20208;-73
2022/04/23 01:27:52;;;;;;;7.50;2.80;;;12.40;99.90;;;;;;5013071;28;20578;-75
2022/04/23 01:30:19;;;;;;;9.45;2.70;;;12.40;99.90;;;;;;5012598;28;20676;-80
2022/04/23 01:32:46;;;;;;;6.07;2.50;;;12.40;99.90;;;;;;5013410;28;20290;-77
2022/04/23 01:35:13;;;;;;;6.72;2.70;;;12.40;99.90;;;;;;5013008;28;20204;-74
2022/04/23 01:37:43;;;;;;;8.63;3.38;;;12.30;99.90;;;;;;5013274;28;20208;-79
2022/04/23 01:40:11;;;;;;;8.15;2.58;;;12.30;99.90;;;;;;5012659;28;20594;-73
2022/04/23 01:42:39;;;;;;;11.45;4.57;;;12.30;99.90;;;;;;5012262;28;20287;-79
2022/04/23 01:45:07;;;;;;;8.32;3.47;;;12.20;99.90;;;;;;5013673;28;20200;-79
2022/04/23 01:47:34;;;;;;;8.23;3.33;;;12.20;99.90;;;;;;5013171;28;20196;-78
2022/04/23 01:50:01;;;;;;;4.93;2.50;;;12.20;99.90;;;;;;5013208;28;20204;-72
2022/04/23 01:52:28;;;;;;;8.73;3.07;;;12.20;99.90;;;;;;5011938;28;20964;-78
2022/04/23 01:54:56;;;;;;;6.78;2.83;;;12.10;99.90;;;;;;5012419;28;20209;-73
2022/04/23 01:57:23;;;;;;;7.22;2.60;;;12.10;99.90;;;;;;5012129;28;20251;-79
2022/04/23 01:59:50;;;;;;;9.18;3.20;;;12.10;99.90;;;;;;5012951;28;20201;-79
2022/04/23 02:02:17;;;;;;;6.20;2.88;;;12.10;99.90;;;;;;5012433;28;20207;-73
2022/04/23 02:04:44;;;;;;;7.68;3.50;;;12.10;99.90;;;;;;5012620;28;20212;-82
2022/04/23 02:07:11;;;;;;;5.60;2.80;;;12.10;99.90;;;;;;5012163;28;20205;-73
2022/04/23 02:09:38;;;;;;;10.85;3.28;;;12.10;99.90;;;;;;5012623;28;20251;-74
2022/04/23 02:12:07;;;;;;;4.72;3.08;;;12.10;99.90;;;;;;5011844;28;20228;-75
2022/04/23 02:14:35;;;;;;;4.53;2.60;;;12.00;99.90;;;;;;5012694;28;20211;-75
2022/04/23 02:17:03;;;;;;;8.23;3.10;;;12.00;99.90;;;;;;5012358;28;20595;-77
2022/04/23 02:19:30;;;;;;;6.55;2.78;;;11.90;99.90;;;;;;5012031;28;20654;-79
2022/04/23 02:21:57;;;;;;;13.23;2.83;;;11.80;99.90;;;;;;5012337;28;20254;-79
2022/04/23 02:24:24;;;;;;;5.88;2.80;;;11.80;99.90;;;;;;5011930;28;20208;-77
2022/04/23 02:26:51;;;;;;;6.18;2.95;;;11.90;99.90;;;;;;5011961;28;20200;-80
2022/04/23 02:29:19;;;;;;;7.88;2.95;;;11.90;99.90;;;;;;5011911;28;20208;-80
2022/04/23 02:31:46;;;;;;;8.52;3.05;;;11.90;99.90;;;;;;5012086;28;20847;-79
2022/04/23 02:34:13;;;;;;;7.63;3.55;;;11.80;99.90;;;;;;5011816;28;20391;-76
2022/04/23 02:36:40;;;;;;;7.65;3.00;;;11.80;99.90;;;;;;5012304;28;20575;-76
2022/04/23 02:39:07;;;;;;;5.00;2.65;;;11.80;99.90;;;;;;5012188;28;20270;-81
2022/04/23 02:41:34;;;;;;;5.22;2.38;;;11.80;99.90;;;;;;5011885;28;20204;-77
2022/04/23 02:44:03;;;;;;;7.68;3.13;;;11.90;99.90;;;;;;5012409;28;20208;-77
2022/04/23 02:46:31;;;;;;;11.63;4.28;;;12.00;99.90;;;;;;5011626;28;20204;-76
2022/04/23 02:48:59;;;;;;;5.93;2.30;;;12.00;99.90;;;;;;5011775;28;20274;-76
2022/04/23 02:51:26;;;;;;;6.13;3.03;;;12.00;99.90;;;;;;5011385;28;20679;-78
2022/04/23 02:53:53;;;;;;;10.53;3.53;;;12.00;99.90;;;;;;5011655;28;20285;-77
2022/04/23 02:56:20;;;;;;;8.07;2.50;;;12.10;99.90;;;;;;5011212;28;20664;-77
2022/04/23 02:58:47;;;;;;;7.97;2.67;;;12.10;99.90;;;;;;5011684;28;20676;-78
2022/04/23 03:01:14;;;;;;;8.53;2.43;;;12.20;99.90;;;;;;5011314;28;20211;-78
2022/04/23 03:03:42;;;;;;;9.57;2.70;;;12.20;99.90;;;;;;5011637;28;20212;-77
2022/04/23 03:06:10;;;;;;;9.38;2.58;;;12.20;99.90;;;;;;5010791;28;20584;-76
2022/04/23 03:08:39;;;;;;;2.60;2.40;;;12.30;99.90;;;;;;5011549;28;20235;-73
2022/04/23 03:11:07;;;;;;;5.38;2.22;;;12.30;99.90;;;;;;5011053;28;20291;-72
2022/04/23 03:13:35;;;;;;;4.73;4.30;;;12.40;99.90;;;;;;5011927;28;20200;-76
2022/04/23 03:16:03;;;;;;;5.63;2.50;;;12.50;99.90;;;;;;5011804;28;20208;-79
2022/04/23 03:18:30;;;;;;;3.03;2.47;;;12.40;99.90;;;;;;5010801;28;20208;-74
2022/04/23 03:20:59;;;;;;;5.80;2.30;;;12.40;99.90;;;;;;5011281;28;20274;-77
2022/04/23 03:23:27;;;;;;;9.07;2.60;;;12.50;99.90;;;;;;5010928;28;20203;-80
2022/04/23 03:25:54;;;;;;;5.05;2.60;;;12.50;99.90;;;;;;5011011;28;20299;-78
2022/04/23 03:28:22;;;;;;;6.57;2.13;;;12.50;99.90;;;;;;5011149;28;20258;-76
2022/04/23 03:30:49;;;;;;;5.80;2.07;;;12.50;99.90;;;;;;5011176;28;20208;-78
2022/04/23 03:33:16;;;;;;;8.88;2.72;;;12.50;99.90;;;;;;5010665;28;20236;-77
2022/04/23 03:35:44;;;;;;;5.32;2.28;;;12.50;99.90;;;;;;5011461;28;20207;-77
2022/04/23 03:38:12;;;;;;;5.40;3.20;;;12.50;99.90;;;;;;5010722;28;20205;-78
2022/04/23 03:40:39;;;;;;;4.27;2.53;;;12.40;99.90;;;;;;5009062;28;20273;-77
2022/04/23 03:43:06;;;;;;;6.53;2.30;;;12.30;99.90;;;;;;4991258;28;20708;-75
2022/04/23 03:45:36;;;;;;;5.47;2.17;;;12.30;99.90;;;;;;4991849;28;20209;-77
2022/04/23 03:48:04;;;;;;;9.32;2.70;;;12.40;99.90;;;;;;4991695;28;20283;-77
2022/04/23 03:50:32;;;;;;;4.13;2.25;;;12.40;99.90;;;;;;4991492;28;20356;-74
2022/04/23 03:52:59;;;;;;;2.70;2.15;;;12.30;99.90;;;;;;4991291;28;20236;-77
2022/04/23 03:55:28;;;;;;;3.50;2.00;;;12.50;99.90;;;;;;4990847;28;20264;-75
2022/04/23 03:57:55;;;;;;;5.20;2.05;;;12.40;99.90;;;;;;4991620;28;20205;-79
2022/04/23 04:00:22;;;;;;;5.45;2.38;;;12.50;99.90;;;;;;4990951;28;20291;-78
2022/04/23 04:02:50;;;;;;;10.63;2.95;;;12.40;99.90;;;;;;4991646;28;20208;-78
2022/04/23 04:05:18;;;;;;;6.20;2.40;;;12.40;99.90;;;;;;4990911;28;20216;-79
2022/04/23 04:07:47;;;;;;;3.47;2.58;;;12.30;99.90;;;;;;4991455;28;20275;-75
2022/04/23 04:10:16;;;;;;;8.13;2.90;;;12.30;99.90;;;;;;4992923;28;20204;-73
2022/04/23 04:12:45;;;;;;;4.77;2.50;;;12.30;99.90;;;;;;4993239;28;20702;-72
2022/04/23 04:15:15;;;;;;;5.23;2.00;;;12.30;99.90;;;;;;5010362;28;20219;-76
2022/04/23 04:17:43;;;;;;;7.90;2.78;;;12.40;99.90;;;;;;5013690;28;20298;-81
2022/04/23 04:20:12;;;;;;;6.00;2.97;;;12.30;99.90;;;;;;5014325;28;20201;-81
2022/04/23 04:22:39;;;;;;;7.20;3.40;;;12.40;99.90;;;;;;5014453;28;20208;-80
2022/04/23 04:25:07;;;;;;;3.57;1.80;;;12.40;99.90;;;;;;5014617;28;20227;-75
2022/04/23 04:27:35;;;;;;;4.35;3.40;;;12.30;99.90;;;;;;5003596;28;20204;-83
2022/04/23 04:30:04;;;;;;;6.22;2.42;;;12.30;99.90;;;;;;5014438;28;20212;-75
2022/04/23 04:32:31;;;;;;;5.22;2.25;;;12.40;99.90;;;;;;5009433;28;20291;-79
2022/04/23 04:34:58;;;;;;;8.40;2.47;;;12.40;99.90;;;;;;5002408;28;20212;-75
2022/04/23 04:37:27;;;;;;;10.77;3.30;;;12.40;99.90;;;;;;5009413;28;20271;-76
2022/04/23 04:39:54;;;;;;;4.97;1.80;;;12.40;99.90;;;;;;5013854;28;20200;-75
2022/04/23 04:42:21;;;;;;;3.80;2.13;;;12.40;99.90;;;;;;5013547;28;20208;-80
2022/04/23 04:44:49;;;;;;;3.87;2.27;;;12.40;99.90;;;;;;5013718;28;20629;-80
2022/04/23 04:47:18;;;;;;;5.03;3.28;;;12.50;99.90;;;;;;5013603;28;20244;-77
2022/04/23 04:49:45;;;;;;;4.75;2.50;;;12.40;99.90;;;;;;5013914;28;20208;-78
2022/04/23 04:52:12;;;;;;;6.60;2.10;;;12.40;99.90;;;;;;5013055;28;20236;-74
2022/04/23 04:54:39;;;;;;;7.38;3.33;;;12.40;99.90;;;;;;5013848;28;20672;-76
2022/04/23 04:57:06;;;;;;;3.65;2.40;;;12.30;99.90;;;;;;5014311;28;20204;-74
2022/04/23 04:59:34;;;;;;;5.97;2.47;;;12.20;99.90;;;;;;5014282;28;20209;-74
2022/04/23 05:02:02;;;;;;;3.38;1.85;;;12.20;99.90;;;;;;5014177;28;20208;-76
2022/04/23 05:04:31;;;;;;;6.15;2.10;;;12.10;99.90;;;;;;5013366;28;20278;-75
2022/04/23 05:06:58;;;;;;;5.13;2.55;;;12.00;99.90;;;;;;5013237;28;20212;-78
2022/04/23 05:09:25;;;;;;;4.43;2.70;;;11.90;99.90;;;;;;5013409;28;20204;-76
2022/04/23 05:11:52;;;;;;;5.40;2.65;;;12.00;99.90;;;;;;5012717;28;20204;-76
2022/04/23 05:14:19;;;;;;;4.40;3.87;;;12.00;99.90;;;;;;5013199;28;20204;-76
2022/04/23 05:16:46;;;;;;;6.23;2.50;;;12.10;99.90;;;;;;5013585;28;20255;-75
2022/04/23 05:19:13;;;;;;;5.45;2.58;;;12.10;99.90;;;;;;5013112;28;20255;-76
2022/04/23 05:21:42;;;;;;;9.10;4.78;;;12.10;99.90;;;;;;5012917;28;20204;-77
2022/04/23 05:24:09;;;;;;;5.63;2.23;;;12.10;99.90;;;;;;5013404;28;20317;-76
2022/04/23 05:26:36;;;;;;;6.20;2.20;;;12.10;99.90;;;;;;5008476;28;20681;-72
2022/04/23 05:29:04;;;;;;;5.00;2.23;;;12.00;99.90;;;;;;5008302;28;20606;-72
2022/04/23 05:31:32;;;;;;;8.50;3.22;;;12.00;99.90;;;;;;5012284;28;20208;-74
2022/04/23 05:33:58;;;;;;;8.13;3.57;;;12.00;99.90;;;;;;4999474;28;20716;-72
2022/04/23 05:36:25;;;;;;;9.37;2.73;;;12.00;99.90;;;;;;5011366;28;20204;-74
2022/04/23 05:38:54;;;;;;;4.93;2.40;;;12.00;99.90;;;;;;5012130;28;20249;-74
2022/04/23 05:41:21;;;;;;;5.77;2.80;;;12.10;99.90;;;;;;5011831;28;20616;-72
2022/04/23 05:43:48;;;;;;;6.53;2.33;;;12.10;99.90;;;;;;5012543;28;20604;-73
2022/04/23 05:46:17;;;;;;;5.23;2.43;;;12.00;99.90;;;;;;5002807;28;20258;-75
2022/04/23 05:48:44;;;;;;;5.50;2.67;;;12.00;99.90;;;;;;5001538;28;20211;-72
2022/04/23 05:51:11;;;;;;;5.05;2.03;;;12.10;99.90;;;;;;4998218;28;20212;-76
2022/04/23 05:53:38;;;;;;;4.27;2.43;;;12.20;99.90;;;;;;5005268;28;20235;-75
2022/04/23 05:56:06;;;;;;;5.57;2.70;;;12.20;99.90;;;;;;5012678;28;20208;-75
2022/04/23 05:58:35;;;;;;;5.78;3.60;;;12.20;99.90;;;;;;4994829;28;20220;-77
2022/04/23 06:01:02;;;;;;;6.22;3.75;;;12.20;99.90;;;;;;4993527;28;20295;-76
2022/04/23 06:03:29;;;;;;;7.78;3.70;;;12.30;99.90;;;;;;4992878;28;20213;-76
2022/04/23 06:05:56;;;;;;;17.10;6.80;;;12.20;99.90;;;;;;4992984;28;20217;-78
2022/04/23 06:08:23;;;;;;;17.63;8.30;;;12.40;99.90;;;;;;4992819;28;20259;-78
2022/04/23 06:10:50;;;;;;;21.00;9.57;;;12.50;99.90;;;;;;5003729;28;20262;-76
2022/04/23 06:13:19;;;;;;;13.25;6.25;;;12.50;99.90;;;;;;5009182;28;20236;-77
2022/04/23 06:15:45;;;;;;;8.40;5.22;;;12.50;99.90;;;;;;4995141;28;20689;-76
2022/04/23 06:18:12;;;;;;;6.53;3.20;;;12.60;99.90;;;;;;5002766;28;20711;-74
2022/04/23 06:20:39;;;;;;;5.78;4.20;;;12.50;99.90;;;;;;5002433;28;20672;-76
2022/04/23 06:23:06;;;;;;;7.68;3.88;;;12.70;99.90;;;;;;5011348;28;20669;-74
2022/04/23 06:25:33;;;;;;;4.78;3.42;;;12.80;99.90;;;;;;5011341;28;20638;-75
2022/04/23 06:28:01;;;;;;;7.97;2.92;;;12.90;99.90;;;;;;5011781;28;20213;-80
2022/04/23 06:30:29;;;;;;;9.05;3.97;;;12.80;99.90;;;;;;5011618;28;21027;-80
2022/04/23 06:32:56;;;;;;;10.10;3.25;;;12.80;99.90;;;;;;5005393;28;20590;-75
2022/04/23 06:35:24;;;;;;;15.00;4.33;;;12.80;99.90;;;;;;5011720;28;20211;-78
2022/04/23 06:37:51;;;;;;;14.40;6.43;;;13.00;99.90;;;;;;5011994;28;20658;-79
2022/04/23 06:40:18;;;;;;;12.32;5.40;;;13.10;99.90;;;;;;5000522;28;20208;-80
2022/04/23 06:42:45;;;;;;;15.63;4.72;;;13.10;99.90;;;;;;5010892;28;20270;-82
2022/04/23 06:45:12;;;;;;;10.43;5.13;;;13.10;99.90;;;;;;5006746;28;20209;-81
2022/04/23 06:47:41;;;;;;;16.08;7.97;;;13.10;99.90;;;;;;5003392;28;20205;-84
2022/04/23 06:50:09;;;;;;;11.95;6.63;;;13.20;99.90;;;;;;4996726;28;20217;-76
2022/04/23 06:52:36;;;;;;;11.25;5.03;;;13.30;99.90;;;;;;4992529;28;20696;-81
2022/04/23 06:55:04;;;;;;;14.52;5.80;;;13.40;99.90;;;;;;5008249;28;20211;-77
2022/04/23 06:57:31;;;;;;;16.35;5.45;;;13.40;99.90;;;;;;5011966;28;20266;-79
2022/04/23 07:00:01;;;;;;;6.93;2.97;;;13.30;99.90;;;;;;5012287;28;20208;-78
2022/04/23 07:02:28;;;;;;;15.88;5.13;;;13.40;99.90;;;;;;5010811;28;20251;-78
2022/04/23 07:04:56;;;;;;;8.60;4.10;;;13.40;99.90;;;;;;5011539;28;20278;-81
2022/04/23 07:07:25;;;;;;;10.30;6.00;;;13.50;99.90;;;;;;5005498;28;20212;-74
2022/04/23 07:09:51;;;;;;;9.60;4.25;;;13.50;99.90;;;;;;4999558;28;20204;-72
2022/04/23 07:12:19;;;;;;;10.57;3.47;;;13.60;99.90;;;;;;5002721;28;20709;-73
2022/04/23 07:14:46;;;;;;;9.25;3.58;;;13.70;99.90;;;;;;5010563;28;20227;-72
2022/04/23 07:17:13;;;;;;;15.00;5.72;;;13.80;99.90;;;;;;5010455;28;20208;-75
2022/04/23 07:19:40;;;;;;;9.82;3.60;;;13.80;99.90;;;;;;5011254;28;20302;-72
2022/04/23 07:22:09;;;;;;;11.23;4.70;;;13.80;99.90;;;;;;5010883;28;20266;-73
2022/04/23 07:24:37;;;;;;;11.70;5.05;;;13.80;99.90;;;;;;5001398;28;20219;-72
2022/04/23 07:27:04;;;;;;;11.05;5.45;;;14.00;99.90;;;;;;4992038;28;20208;-72
2022/04/23 07:29:31;;;;;;;8.18;4.50;;;14.30;99.90;;;;;;4991657;28;20205;-72
2022/04/23 07:31:58;;;;;;;13.68;4.55;;;14.50;99.90;;;;;;4991569;28;20258;-76
2022/04/23 07:37:29;;;;;;;5.68;3.28;;;14.40;99.90;;;;;;4999373;28;20219;-74
2022/04/23 07:39:57;;;;;;;6.57;3.22;;;14.50;99.90;;;;;;5010453;28;20211;-73
2022/04/23 07:42:24;;;;;;;7.72;2.67;;;14.40;99.90;;;;;;4999324;28;20204;-76
2022/04/23 07:44:51;;;;;;;16.30;4.95;;;14.40;99.90;;;;;;5010489;28;20259;-74
2022/04/23 07:47:18;;;;;;;10.07;4.97;;;14.40;99.90;;;;;;5009870;28;20258;-72
2022/04/23 07:49:45;;;;;;;8.20;4.03;;;14.60;99.90;;;;;;5010735;28;20212;-71
2022/04/23 07:52:14;;;;;;;5.00;3.60;;;14.70;99.90;;;;;;5012448;28;20676;-71
2022/04/23 07:54:41;;;;;;;9.45;4.15;;;14.80;99.90;;;;;;5014914;28;20236;-74
2022/04/23 07:57:08;;;;;;;10.90;4.25;;;14.80;99.90;;;;;;5014773;28;20291;-72
2022/04/23 07:59:39;;;;;;;13.80;4.95;;;14.70;99.90;;;;;;5015182;28;20300;-77
2022/04/23 08:02:06;;;;;;;10.68;5.15;;;14.60;99.90;;;;;;5015136;28;20671;-71
2022/04/23 08:04:33;;;;;;;10.60;4.18;;;14.60;99.90;;;;;;5014197;28;20220;-76
2022/04/23 08:07:00;;;;;;;5.07;2.88;;;14.60;99.90;;;;;;5013630;28;20677;-74
2022/04/23 08:09:28;;;;;;;9.98;5.22;;;14.60;99.90;;;;;;5013760;28;20286;-75
2022/04/23 08:11:56;;;;;;;5.90;3.13;;;14.70;99.90;;;;;;5010649;28;20258;-75
2022/04/23 08:14:22;;;;;;;6.95;3.28;;;14.60;99.90;;;;;;5011309;28;20294;-76
2022/04/23 08:16:50;;;;;;;8.25;3.85;;;14.50;99.90;;;;;;5010936;28;20680;-73
2022/04/23 08:19:18;;;;;;;6.15;3.35;;;14.50;99.90;;;;;;5004673;28;20579;-83
2022/04/23 08:21:45;;;;;;;11.38;3.80;;;14.60;99.90;;;;;;5001327;28;20205;-74
2022/04/23 08:24:12;;;;;;;6.43;3.15;;;14.70;99.90;;;;;;4998881;28;20212;-72
2022/04/23 08:26:40;;;;;;;11.23;3.50;;;15.00;99.90;;;;;;5012022;28;20211;-70
2022/04/23 08:31:52;;;;;;;11.40;2.80;;;15.10;99.90;;;;;;5006992;28;20212;-83
2022/04/23 08:34:19;;;;;;;7.90;4.05;;;15.00;99.90;;;;;;5013443;28;20240;-72
2022/04/23 08:36:49;;;;;;;13.65;4.55;;;15.10;99.90;;;;;;5006443;28;20208;-71
2022/04/23 08:39:16;;;;;;;11.02;4.28;;;15.00;99.90;;;;;;5013166;28;20291;-74
2022/04/23 08:41:46;;;;;;;8.15;3.25;;;15.10;99.90;;;;;;5000298;28;20217;-73
2022/04/23 08:44:13;;;;;;;6.47;3.55;;;15.30;99.90;;;;;;4994198;28;20259;-73
2022/04/23 08:46:41;;;;;;;9.57;3.65;;;15.30;99.90;;;;;;4994567;28;20256;-74
2022/04/23 08:49:10;;;;;;;7.25;3.33;;;15.20;99.90;;;;;;4994422;28;20264;-72
2022/04/23 08:51:38;;;;;;;10.63;3.28;;;15.20;99.90;;;;;;4994240;28;20211;-73
2022/04/23 08:54:08;;;;;;;11.25;3.33;;;15.30;99.90;;;;;;4994521;28;20299;-73
2022/04/23 08:56:39;;;;;;;6.88;3.08;;;15.50;99.90;;;;;;5013319;28;20321;-74
2022/04/23 08:59:08;;;;;;;13.57;3.55;;;15.30;99.90;;;;;;5013869;28;20747;-73
2022/04/23 09:01:37;;;;;;;10.23;5.13;;;15.30;99.90;;;;;;5014156;28;20204;-75
2022/04/23 09:04:05;;;;;;;12.13;3.88;;;15.20;99.90;;;;;;5013718;28;20278;-72
2022/04/23 09:06:41;;;;;;;11.98;3.53;;;15.10;99.90;;;;;;5012178;28;20212;-75
2022/04/23 09:09:20;;;;;;;9.73;4.50;;;14.90;99.90;;;;;;5013510;28;20216;-74
2022/04/23 09:11:50;;;;;;;13.07;4.07;;;14.80;99.90;;;;;;5011486;28;20211;-73
2022/04/23 09:14:27;;;;;;;18.10;5.00;;;14.60;99.90;;;;;;5011661;28;20720;-74
2022/04/23 09:25:18;;;;;;;8.10;4.15;;;14.50;99.90;;;;;;5012923;28;20656;-74
2022/04/23 09:27:45;;;;;;;11.93;4.05;;;14.60;99.90;;;;;;5013085;28;20204;-74
2022/04/23 09:30:14;;;;;;;9.90;3.03;;;14.70;99.90;;;;;;5012989;28;20254;-75
2022/04/23 09:33:00;;;;;;;17.52;3.83;;;14.60;99.90;;;;;;5013321;28;20204;-74
2022/04/23 09:35:27;;;;;;;11.60;4.90;;;14.60;99.90;;;;;;5012809;28;20690;-74
2022/04/23 09:38:12;;;;;;;8.00;3.78;;;14.50;99.90;;;;;;5012461;28;20266;-76
2022/04/23 09:40:39;;;;;;;7.85;2.90;;;14.40;99.90;;;;;;5012485;28;20671;-72
2022/04/23 09:43:08;;;;;;;2.85;1.52;;;14.20;99.90;;;;;;5013255;28;20266;-72
2022/04/23 09:45:41;;;;;;;2.28;0.52;;;13.40;99.90;;;;;;5013242;28;20299;-77
2022/04/23 09:48:18;;;;;;;2.75;0.88;;;13.00;99.90;;;;;;5012394;28;20204;-74
2022/04/23 09:50:48;;;;;;;2.08;0.47;;;12.80;99.90;;;;;;5012891;28;20208;-77
2022/04/23 09:53:16;;;;;;;3.05;0.50;;;12.60;99.90;;;;;;5012270;28;20204;-75
2022/04/23 09:55:45;;;;;;;1.15;0.77;;;12.30;99.90;;;;;;5012762;28;20200;-75
2022/04/23 09:58:13;;;;;;;4.35;0.90;;;12.00;99.90;;;;;;5008287;28;20212;-76
2022/04/23 10:00:43;;;;;;;2.13;0.90;;;11.70;99.90;;;;;;5007375;28;20303;-75
2022/04/23 10:03:11;;;;;;;1.17;0.52;;;11.50;99.90;;;;;;5011852;28;20622;-76
2022/04/23 10:05:41;;;;;;;14.15;3.08;;;11.20;99.90;;;;;;5006434;28;20216;-76
2022/04/23 10:08:12;;;;;;;0.40;0.40;;;11.00;99.90;;;;;;5011632;28;20687;-74
2022/04/23 10:10:45;;;;;;;0.85;0.63;;;10.80;99.90;;;;;;5009703;28;20317;-74
2022/04/23 10:13:13;;;;;;;1.25;0.47;;;10.70;99.90;;;;;;5008775;28;20633;-76
2022/04/23 10:15:46;;;;;;;1.05;0.63;;;10.60;99.90;;;;;;5010787;28;20654;-73
2022/04/23 10:18:14;;;;;;;2.97;0.40;;;10.60;99.90;;;;;;4995434;28;20236;-75
2022/04/23 10:20:46;;;;;;;1.02;0.57;;;10.50;99.90;;;;;;5003320;28;20666;-77
2022/04/23 10:23:21;;;;;;;0.57;0.50;;;10.50;99.90;;;;;;5006159;28;20210;-75
2022/04/23 10:25:51;;;;;;;1.87;0.60;;;10.70;99.90;;;;;;5007077;28;20212;-74
2022/04/23 10:28:19;;;;;;;2.20;0.63;;;10.80;99.90;;;;;;5011604;28;20216;-79
2022/04/23 10:30:48;;;;;;;1.13;0.90;;;10.80;99.90;;;;;;4995010;28;20589;-74
2022/04/23 10:33:26;;;;;;;4.60;1.93;;;10.60;99.90;;;;;;4992338;28;20205;-75
2022/04/23 10:36:08;;;;;;;16.33;13.43;;;10.50;99.90;;;;;;4992511;28;20745;-78
2022/04/23 10:38:37;;;;;;;5.40;2.90;;;10.50;99.90;;;;;;5010444;28;20204;-76
2022/04/23 10:41:05;;;;;;;2.03;0.70;;;10.40;99.90;;;;;;4992638;28;20744;-78
2022/04/23 10:43:32;;;;;;;1.00;0.77;;;10.50;99.90;;;;;;4992326;28;20251;-76
2022/04/23 10:46:01;;;;;;;1.30;0.40;;;10.40;99.90;;;;;;4992393;28;20661;-79
2022/04/23 10:48:30;;;;;;;1.20;0.60;;;10.30;99.90;;;;;;5008288;28;20744;-75
2022/04/23 10:51:01;;;;;;;1.07;0.97;;;10.40;99.90;;;;;;5009953;28;20216;-75
2022/04/23 10:53:29;;;;;;;0.60;0.40;;;10.30;99.90;;;;;;5010932;28;20750;-79
2022/04/23 10:56:08;;;;;;;0.70;0.57;;;10.20;99.90;;;;;;5005217;28;20212;-77
2022/04/23 10:58:37;;;;;;;0.73;0.30;;;10.20;99.90;;;;;;5008265;28;20211;-75
2022/04/23 11:01:21;;;;;;;2.53;0.40;;;10.00;99.90;;;;;;5003125;28;20367;-77
2022/04/23 11:04:13;;;;;;;1.23;0.40;;;9.90;99.90;;;;;;5009522;28;20697;-77
2022/04/23 11:12:37;;;;;;;2.67;0.70;;;9.60;99.90;;;;;;5011903;28;20207;-81
2022/04/23 11:15:15;;;;;;;0.83;0.70;;;9.50;99.90;;;;;;5011844;28;20294;-82
2022/04/23 11:17:54;;;;;;;0.93;0.40;;;9.40;99.90;;;;;;5011289;28;20295;-74
2022/04/23 11:20:32;;;;;;;2.73;1.10;;;9.50;99.90;;;;;;5011088;28;20670;-75
2022/04/23 11:23:00;;;;;;;1.17;0.63;;;9.50;99.90;;;;;;5010332;28;20576;-75
2022/04/23 11:25:28;;;;;;;0.80;0.40;;;9.50;99.90;;;;;;5005163;28;20219;-76
2022/04/23 11:28:01;;;;;;;1.43;0.50;;;9.50;99.90;;;;;;4991201;28;20628;-75
2022/04/23 11:30:30;;;;;;;1.13;0.73;;;9.50;99.90;;;;;;5006096;28;20216;-80
2022/04/23 11:33:11;;;;;;;1.80;0.63;;;9.50;1.00;;;;;;5003154;28;20223;-79
2022/04/23 11:35:38;;;;;;;1.33;0.83;;;9.50;99.90;;;;;;5010583;28;20656;-72
2022/04/23 11:38:06;;;;;;;1.00;0.40;;;9.40;99.90;;;;;;5010613;28;20204;-74
2022/04/23 11:40:35;;;;;;;1.43;0.70;;;9.40;99.90;;;;;;5009345;28;20215;-77
2022/04/23 11:43:02;;;;;;;1.53;0.57;;;9.50;99.90;;;;;;4991816;28;20669;-73
2022/04/23 11:45:29;;;;;;;1.00;0.40;;;9.60;99.90;;;;;;4991152;28;20209;-84
2022/04/23 11:47:56;;;;;;;2.30;0.90;;;9.50;99.90;;;;;;4991650;28;20297;-76
2022/04/23 11:50:29;;;;;;;0.97;0.40;;;9.50;99.90;;;;;;4991273;28;20204;-73
2022/04/23 11:53:01;;;;;;;2.07;1.10;;;9.50;99.90;;;;;;4990981;28;20208;-78
2022/04/23 11:55:30;;;;;;;0.57;0.50;;;9.50;99.90;;;;;;4991008;28;21086;-76
2022/04/23 11:57:58;;;;;;;0.83;0.70;;;9.50;99.90;;;;;;4991756;28;20208;-76
2022/04/23 12:00:26;;;;;;;2.60;0.70;;;9.50;99.90;;;;;;4991158;28;20201;-73
2022/04/23 12:02:53;;;;;;;1.50;0.60;;;9.60;99.90;;;;;;4991568;28;20283;-74
2022/04/23 12:05:28;;;;;;;0.80;0.47;;;9.60;99.90;;;;;;4995254;28;20211;-82
2022/04/23 12:07:55;;;;;;;0.60;0.57;;;9.70;99.90;;;;;;5010325;28;20298;-73
2022/04/23 12:10:26;;;;;;;0.77;0.60;;;9.70;99.90;;;;;;5010749;28;20208;-79
2022/04/23 12:12:56;;;;;;;1.30;1.20;;;9.60;99.90;;;;;;5007696;28;20266;-75
2022/04/23 12:15:23;;;;;;;0.60;0.60;;;9.60;99.90;;;;;;5010315;28;20235;-76
2022/04/23 12:17:52;;;;;;;0.97;0.50;;;9.60;99.90;;;;;;4995936;28;20256;-75
2022/04/23 12:20:20;;;;;;;0.53;0.50;;;9.70;99.90;;;;;;4990715;28;20305;-74
2022/04/23 12:22:59;;;;;;;0.57;0.30;;;9.70;99.90;;;;;;5004933;28;20208;-76
2022/04/23 12:25:27;;;;;;;1.67;0.60;;;9.70;99.90;;;;;;5010876;28;20207;-81
2022/04/23 12:27:59;;;;;;;1.97;0.90;;;9.80;99.90;;;;;;5010621;28;20639;-79
2022/04/23 12:41:54;;;;;;;1.00;0.83;;;9.80;99.90;;;;;;5014218;28;20210;-81
2022/04/23 12:44:22;;;;;;;1.37;0.60;;;9.70;99.90;;;;;;5013747;28;20652;-72
2022/04/23 12:46:56;;;;;;;0.77;0.57;;;9.80;99.90;;;;;;5014153;28;20679;-75
2022/04/23 12:49:23;;;;;;;0.50;0.40;;;9.90;99.90;;;;;;5002817;28;20228;-70
2022/04/23 12:51:56;;;;;;;0.50;0.40;;;9.80;99.90;;;;;;4997830;28;20291;-70
2022/04/23 12:54:25;;;;;;;0.67;0.60;;;9.80;99.90;;;;;;5002364;28;20279;-70
2022/04/23 12:56:52;;;;;;;1.40;0.50;;;9.90;99.90;;;;;;5012939;28;20282;-69
2022/04/23 12:59:19;;;;;;;1.00;0.40;;;9.80;99.90;;;;;;5002403;28;20270;-73
2022/04/23 13:01:46;;;;;;;1.33;0.60;;;9.80;99.90;;;;;;5006296;28;20212;-71
2022/04/23 13:04:15;;;;;;;0.67;0.50;;;9.90;99.90;;;;;;5007692;28;20205;-70
2022/04/23 13:09:28;;;;;;;1.17;0.50;;;10.30;99.90;;;;;;5007243;28;20223;-69
2022/04/23 13:11:55;;;;;;;0.40;0.33;;;10.20;99.90;;;;;;5012906;28;20660;-72
2022/04/23 13:14:22;;;;;;;0.87;0.50;;;10.00;99.90;;;;;;5012947;28;20805;-73
2022/04/23 13:16:49;;;;;;;0.37;0.33;;;10.10;99.90;;;;;;5013480;28;20263;-80
2022/04/23 13:19:16;;;;;;;0.40;0.30;;;10.10;99.90;;;;;;5013209;28;20201;-74
2022/04/23 13:21:43;;;;;;;1.23;0.60;;;10.00;99.90;;;;;;5013691;28;20212;-77
2022/04/23 13:24:10;;;;;;;0.73;0.53;;;10.00;99.90;;;;;;5007310;28;20212;-70
2022/04/23 13:26:38;;;;;;;1.10;0.33;;;10.10;99.90;;;;;;5004443;28;20291;-74